sensor_id;sensor_type;location;lat;lon;timestamp;P1;durP1;ratioP1;P2;durP2;ratioP2
52412;SDS011;38339;53.234;6.578;2022-09-09T00:00:14;9.52;;;6.85;;
52412;SDS011;38339;53.234;6.578;2022-09-09T00:02:44;10.23;;;6.97;;
52412;SDS011;38339;53.234;6.578;2022-09-09T00:07:53;10.82;;;7.40;;
52412;SDS011;38339;53.234;6.578;2022-09-09T00:10:28;11.63;;;7.75;;
52412;SDS011;38339;53.234;6.578;2022-09-09T00:16:00;11.32;;;7.80;;
52412;SDS011;38339;53.234;6.578;2022-09-09T00:21:19;13.70;;;9.23;;
52412;SDS011;38339;53.234;6.578;2022-09-09T00:23:53;14.27;;;8.68;;
52412;SDS011;38339;53.234;6.578;2022-09-09T00:29:00;11.93;;;9.10;;
52412;SDS011;38339;53.234;6.578;2022-09-09T00:31:37;12.52;;;8.95;;
52412;SDS011;38339;53.234;6.578;2022-09-09T00:34:13;13.48;;;9.25;;
52412;SDS011;38339;53.234;6.578;2022-09-09T00:36:50;15.15;;;9.43;;
52412;SDS011;38339;53.234;6.578;2022-09-09T00:44:39;14.75;;;10.75;;
52412;SDS011;38339;53.234;6.578;2022-09-09T00:47:39;16.67;;;10.50;;
52412;SDS011;38339;53.234;6.578;2022-09-09T00:50:16;12.60;;;9.88;;
52412;SDS011;38339;53.234;6.578;2022-09-09T00:55:28;11.57;;;8.95;;
52412;SDS011;38339;53.234;6.578;2022-09-09T00:58:15;12.98;;;8.68;;
52412;SDS011;38339;53.234;6.578;2022-09-09T01:00:42;14.00;;;8.60;;
52412;SDS011;38339;53.234;6.578;2022-09-09T01:03:33;11.98;;;8.07;;
52412;SDS011;38339;53.234;6.578;2022-09-09T01:11:20;12.13;;;7.18;;
52412;SDS011;38339;53.234;6.578;2022-09-09T01:13:49;12.02;;;7.28;;
52412;SDS011;38339;53.234;6.578;2022-09-09T01:16:24;11.32;;;6.93;;
52412;SDS011;38339;53.234;6.578;2022-09-09T01:18:51;10.98;;;6.80;;
52412;SDS011;38339;53.234;6.578;2022-09-09T01:21:39;9.55;;;6.95;;
52412;SDS011;38339;53.234;6.578;2022-09-09T01:27:01;15.55;;;7.80;;
52412;SDS011;38339;53.234;6.578;2022-09-09T01:29:29;10.32;;;7.07;;
52412;SDS011;38339;53.234;6.578;2022-09-09T01:31:56;11.48;;;7.35;;
52412;SDS011;38339;53.234;6.578;2022-09-09T01:34:26;11.05;;;7.30;;
52412;SDS011;38339;53.234;6.578;2022-09-09T01:37:08;9.65;;;6.95;;
52412;SDS011;38339;53.234;6.578;2022-09-09T01:39:37;10.65;;;7.13;;
52412;SDS011;38339;53.234;6.578;2022-09-09T01:42:06;12.88;;;7.30;;
52412;SDS011;38339;53.234;6.578;2022-09-09T01:44:35;10.13;;;6.45;;
52412;SDS011;38339;53.234;6.578;2022-09-09T01:47:02;10.73;;;6.40;;
52412;SDS011;38339;53.234;6.578;2022-09-09T01:49:28;11.32;;;6.65;;
52412;SDS011;38339;53.234;6.578;2022-09-09T01:51:55;8.70;;;6.50;;
52412;SDS011;38339;53.234;6.578;2022-09-09T01:54:22;11.35;;;6.50;;
52412;SDS011;38339;53.234;6.578;2022-09-09T01:59:36;14.23;;;7.90;;
52412;SDS011;38339;53.234;6.578;2022-09-09T02:04:44;10.52;;;7.60;;
52412;SDS011;38339;53.234;6.578;2022-09-09T02:12:49;14.10;;;8.80;;
52412;SDS011;38339;53.234;6.578;2022-09-09T02:15:36;12.02;;;8.20;;
52412;SDS011;38339;53.234;6.578;2022-09-09T02:18:09;10.55;;;7.93;;
52412;SDS011;38339;53.234;6.578;2022-09-09T02:20:39;12.60;;;8.35;;
52412;SDS011;38339;53.234;6.578;2022-09-09T02:23:06;11.77;;;8.00;;
52412;SDS011;38339;53.234;6.578;2022-09-09T02:25:35;11.23;;;8.75;;
52412;SDS011;38339;53.234;6.578;2022-09-09T02:28:03;13.85;;;8.25;;
52412;SDS011;38339;53.234;6.578;2022-09-09T02:30:33;15.15;;;9.13;;
52412;SDS011;38339;53.234;6.578;2022-09-09T02:33:03;14.45;;;9.35;;
52412;SDS011;38339;53.234;6.578;2022-09-09T02:35:31;14.10;;;9.32;;
52412;SDS011;38339;53.234;6.578;2022-09-09T02:38:04;11.73;;;9.30;;
52412;SDS011;38339;53.234;6.578;2022-09-09T02:40:33;14.60;;;9.68;;
52412;SDS011;38339;53.234;6.578;2022-09-09T02:42:59;12.63;;;9.63;;
52412;SDS011;38339;53.234;6.578;2022-09-09T02:45:26;14.23;;;9.65;;
52412;SDS011;38339;53.234;6.578;2022-09-09T02:51:16;15.00;;;9.93;;
52412;SDS011;38339;53.234;6.578;2022-09-09T02:53:48;15.77;;;10.88;;
52412;SDS011;38339;53.234;6.578;2022-09-09T02:56:17;15.60;;;10.02;;
52412;SDS011;38339;53.234;6.578;2022-09-09T02:58:47;11.80;;;9.15;;
52412;SDS011;38339;53.234;6.578;2022-09-09T03:01:17;11.15;;;9.00;;
52412;SDS011;38339;53.234;6.578;2022-09-09T03:03:43;14.77;;;10.02;;
52412;SDS011;38339;53.234;6.578;2022-09-09T03:06:09;12.10;;;8.68;;
52412;SDS011;38339;53.234;6.578;2022-09-09T03:08:37;14.43;;;9.35;;
52412;SDS011;38339;53.234;6.578;2022-09-09T03:11:02;13.27;;;9.30;;
52412;SDS011;38339;53.234;6.578;2022-09-09T03:13:28;13.23;;;9.40;;
52412;SDS011;38339;53.234;6.578;2022-09-09T03:15:54;15.02;;;9.23;;
52412;SDS011;38339;53.234;6.578;2022-09-09T03:18:20;12.95;;;8.77;;
52412;SDS011;38339;53.234;6.578;2022-09-09T03:20:46;13.82;;;9.10;;
52412;SDS011;38339;53.234;6.578;2022-09-09T03:23:13;18.77;;;9.63;;
52412;SDS011;38339;53.234;6.578;2022-09-09T03:25:39;15.18;;;8.95;;
52412;SDS011;38339;53.234;6.578;2022-09-09T03:28:12;15.32;;;8.90;;
52412;SDS011;38339;53.234;6.578;2022-09-09T03:30:37;12.48;;;8.35;;
52412;SDS011;38339;53.234;6.578;2022-09-09T03:33:03;14.65;;;8.55;;
52412;SDS011;38339;53.234;6.578;2022-09-09T03:35:28;13.88;;;7.60;;
52412;SDS011;38339;53.234;6.578;2022-09-09T03:37:54;10.40;;;7.72;;
52412;SDS011;38339;53.234;6.578;2022-09-09T03:40:20;12.10;;;7.60;;
52412;SDS011;38339;53.234;6.578;2022-09-09T03:42:46;10.60;;;8.30;;
52412;SDS011;38339;53.234;6.578;2022-09-09T03:45:13;11.05;;;7.57;;
52412;SDS011;38339;53.234;6.578;2022-09-09T03:47:39;13.05;;;7.32;;
52412;SDS011;38339;53.234;6.578;2022-09-09T03:50:05;11.57;;;7.05;;
52412;SDS011;38339;53.234;6.578;2022-09-09T03:52:36;15.98;;;7.45;;
52412;SDS011;38339;53.234;6.578;2022-09-09T03:55:04;10.63;;;6.60;;
52412;SDS011;38339;53.234;6.578;2022-09-09T03:57:30;10.23;;;5.60;;
52412;SDS011;38339;53.234;6.578;2022-09-09T03:59:59;8.13;;;5.13;;
52412;SDS011;38339;53.234;6.578;2022-09-09T04:02:26;8.73;;;5.38;;
52412;SDS011;38339;53.234;6.578;2022-09-09T04:04:53;10.10;;;5.57;;
52412;SDS011;38339;53.234;6.578;2022-09-09T04:07:18;10.63;;;4.85;;
52412;SDS011;38339;53.234;6.578;2022-09-09T04:09:44;7.22;;;4.40;;
52412;SDS011;38339;53.234;6.578;2022-09-09T04:12:10;10.80;;;4.55;;
52412;SDS011;38339;53.234;6.578;2022-09-09T04:14:38;8.88;;;3.80;;
52412;SDS011;38339;53.234;6.578;2022-09-09T04:17:04;7.05;;;3.65;;
52412;SDS011;38339;53.234;6.578;2022-09-09T04:19:31;7.28;;;3.83;;
52412;SDS011;38339;53.234;6.578;2022-09-09T04:21:57;8.43;;;3.88;;
52412;SDS011;38339;53.234;6.578;2022-09-09T04:24:23;6.18;;;3.78;;
52412;SDS011;38339;53.234;6.578;2022-09-09T04:26:50;6.45;;;3.47;;
52412;SDS011;38339;53.234;6.578;2022-09-09T04:29:16;5.80;;;3.42;;
52412;SDS011;38339;53.234;6.578;2022-09-09T04:31:42;7.35;;;3.35;;
52412;SDS011;38339;53.234;6.578;2022-09-09T04:34:11;8.60;;;3.80;;
52412;SDS011;38339;53.234;6.578;2022-09-09T04:36:36;7.22;;;3.67;;
52412;SDS011;38339;53.234;6.578;2022-09-09T04:39:02;6.97;;;3.38;;
52412;SDS011;38339;53.234;6.578;2022-09-09T04:41:28;7.63;;;3.40;;
52412;SDS011;38339;53.234;6.578;2022-09-09T04:43:54;6.50;;;3.50;;
52412;SDS011;38339;53.234;6.578;2022-09-09T04:46:21;6.45;;;3.50;;
52412;SDS011;38339;53.234;6.578;2022-09-09T04:48:48;7.28;;;4.07;;
52412;SDS011;38339;53.234;6.578;2022-09-09T04:51:14;6.40;;;3.55;;
52412;SDS011;38339;53.234;6.578;2022-09-09T04:53:40;8.10;;;4.35;;
52412;SDS011;38339;53.234;6.578;2022-09-09T04:56:08;6.95;;;4.07;;
52412;SDS011;38339;53.234;6.578;2022-09-09T04:58:35;7.82;;;3.88;;
52412;SDS011;38339;53.234;6.578;2022-09-09T05:03:54;8.15;;;4.53;;
52412;SDS011;38339;53.234;6.578;2022-09-09T05:06:20;7.80;;;4.30;;
52412;SDS011;38339;53.234;6.578;2022-09-09T05:08:47;8.52;;;4.45;;
52412;SDS011;38339;53.234;6.578;2022-09-09T05:11:16;7.40;;;4.38;;
52412;SDS011;38339;53.234;6.578;2022-09-09T05:13:44;9.20;;;4.93;;
52412;SDS011;38339;53.234;6.578;2022-09-09T05:16:11;7.68;;;4.90;;
52412;SDS011;38339;53.234;6.578;2022-09-09T05:18:38;8.65;;;5.30;;
52412;SDS011;38339;53.234;6.578;2022-09-09T05:21:04;8.57;;;5.47;;
52412;SDS011;38339;53.234;6.578;2022-09-09T05:23:31;8.82;;;5.72;;
52412;SDS011;38339;53.234;6.578;2022-09-09T05:25:59;9.15;;;5.60;;
52412;SDS011;38339;53.234;6.578;2022-09-09T05:28:25;9.27;;;6.13;;
52412;SDS011;38339;53.234;6.578;2022-09-09T05:31:01;12.82;;;6.45;;
52412;SDS011;38339;53.234;6.578;2022-09-09T05:33:30;10.13;;;6.50;;
52412;SDS011;38339;53.234;6.578;2022-09-09T05:36:00;12.68;;;6.50;;
52412;SDS011;38339;53.234;6.578;2022-09-09T05:38:38;9.77;;;6.70;;
52412;SDS011;38339;53.234;6.578;2022-09-09T05:41:04;9.48;;;6.47;;
52412;SDS011;38339;53.234;6.578;2022-09-09T05:43:30;13.25;;;6.75;;
52412;SDS011;38339;53.234;6.578;2022-09-09T05:48:34;11.73;;;7.53;;
52412;SDS011;38339;53.234;6.578;2022-09-09T05:51:09;12.57;;;8.30;;
52412;SDS011;38339;53.234;6.578;2022-09-09T05:53:37;13.88;;;7.47;;
52412;SDS011;38339;53.234;6.578;2022-09-09T05:56:07;10.05;;;7.28;;
52412;SDS011;38339;53.234;6.578;2022-09-09T05:58:35;10.60;;;7.82;;
52412;SDS011;38339;53.234;6.578;2022-09-09T06:01:06;11.05;;;8.20;;
52412;SDS011;38339;53.234;6.578;2022-09-09T06:03:35;12.38;;;8.60;;
52412;SDS011;38339;53.234;6.578;2022-09-09T06:06:03;11.77;;;8.30;;
52412;SDS011;38339;53.234;6.578;2022-09-09T06:08:31;13.25;;;7.75;;
52412;SDS011;38339;53.234;6.578;2022-09-09T06:13:30;12.75;;;8.40;;
52412;SDS011;38339;53.234;6.578;2022-09-09T06:15:57;12.38;;;8.20;;
52412;SDS011;38339;53.234;6.578;2022-09-09T06:18:23;13.52;;;8.50;;
52412;SDS011;38339;53.234;6.578;2022-09-09T06:20:56;13.00;;;8.32;;
52412;SDS011;38339;53.234;6.578;2022-09-09T06:23:24;12.27;;;8.48;;
52412;SDS011;38339;53.234;6.578;2022-09-09T06:25:50;13.02;;;8.13;;
52412;SDS011;38339;53.234;6.578;2022-09-09T06:28:17;12.90;;;8.13;;
52412;SDS011;38339;53.234;6.578;2022-09-09T06:30:43;13.23;;;8.18;;
52412;SDS011;38339;53.234;6.578;2022-09-09T06:33:09;13.85;;;8.18;;
52412;SDS011;38339;53.234;6.578;2022-09-09T06:35:35;12.82;;;8.48;;
52412;SDS011;38339;53.234;6.578;2022-09-09T06:38:01;12.52;;;7.85;;
52412;SDS011;38339;53.234;6.578;2022-09-09T06:40:26;11.82;;;7.75;;
52412;SDS011;38339;53.234;6.578;2022-09-09T06:42:52;10.45;;;7.40;;
52412;SDS011;38339;53.234;6.578;2022-09-09T06:45:18;12.07;;;7.90;;
52412;SDS011;38339;53.234;6.578;2022-09-09T06:47:44;12.63;;;7.78;;
52412;SDS011;38339;53.234;6.578;2022-09-09T06:50:10;9.55;;;6.88;;
52412;SDS011;38339;53.234;6.578;2022-09-09T06:52:36;9.82;;;7.97;;
52412;SDS011;38339;53.234;6.578;2022-09-09T06:55:02;12.65;;;10.15;;
52412;SDS011;38339;53.234;6.578;2022-09-09T06:57:28;24.17;;;17.00;;
52412;SDS011;38339;53.234;6.578;2022-09-09T06:59:54;14.02;;;8.00;;
52412;SDS011;38339;53.234;6.578;2022-09-09T07:02:21;16.88;;;7.57;;
52412;SDS011;38339;53.234;6.578;2022-09-09T07:04:46;11.20;;;6.88;;
52412;SDS011;38339;53.234;6.578;2022-09-09T07:07:12;14.35;;;8.13;;
52412;SDS011;38339;53.234;6.578;2022-09-09T07:09:40;10.75;;;7.95;;
52412;SDS011;38339;53.234;6.578;2022-09-09T07:12:06;10.95;;;6.72;;
52412;SDS011;38339;53.234;6.578;2022-09-09T07:14:32;10.75;;;6.75;;
52412;SDS011;38339;53.234;6.578;2022-09-09T07:17:01;10.50;;;7.35;;
52412;SDS011;38339;53.234;6.578;2022-09-09T07:19:26;9.60;;;7.03;;
52412;SDS011;38339;53.234;6.578;2022-09-09T07:21:52;10.32;;;6.60;;
52412;SDS011;38339;53.234;6.578;2022-09-09T07:24:18;9.70;;;7.30;;
52412;SDS011;38339;53.234;6.578;2022-09-09T07:26:44;11.88;;;6.45;;
52412;SDS011;38339;53.234;6.578;2022-09-09T07:29:11;9.75;;;6.75;;
52412;SDS011;38339;53.234;6.578;2022-09-09T07:31:38;16.65;;;11.40;;
52412;SDS011;38339;53.234;6.578;2022-09-09T07:34:04;13.13;;;8.65;;
52412;SDS011;38339;53.234;6.578;2022-09-09T07:36:32;10.40;;;6.97;;
52412;SDS011;38339;53.234;6.578;2022-09-09T07:39:03;21.35;;;6.90;;
52412;SDS011;38339;53.234;6.578;2022-09-09T07:41:38;11.75;;;6.95;;
52412;SDS011;38339;53.234;6.578;2022-09-09T07:44:18;12.13;;;6.70;;
52412;SDS011;38339;53.234;6.578;2022-09-09T07:46:46;10.82;;;6.57;;
52412;SDS011;38339;53.234;6.578;2022-09-09T07:49:12;10.85;;;6.63;;
52412;SDS011;38339;53.234;6.578;2022-09-09T07:51:40;11.23;;;6.68;;
52412;SDS011;38339;53.234;6.578;2022-09-09T07:54:08;9.95;;;6.53;;
52412;SDS011;38339;53.234;6.578;2022-09-09T07:56:36;24.42;;;14.93;;
52412;SDS011;38339;53.234;6.578;2022-09-09T07:59:03;10.40;;;6.80;;
52412;SDS011;38339;53.234;6.578;2022-09-09T08:01:33;12.38;;;6.10;;
52412;SDS011;38339;53.234;6.578;2022-09-09T08:04:08;10.13;;;5.72;;
52412;SDS011;38339;53.234;6.578;2022-09-09T08:06:45;10.35;;;6.07;;
52412;SDS011;38339;53.234;6.578;2022-09-09T08:09:14;9.05;;;5.97;;
52412;SDS011;38339;53.234;6.578;2022-09-09T08:11:40;10.43;;;5.90;;
52412;SDS011;38339;53.234;6.578;2022-09-09T08:14:07;8.45;;;5.70;;
52412;SDS011;38339;53.234;6.578;2022-09-09T08:16:36;11.45;;;6.07;;
52412;SDS011;38339;53.234;6.578;2022-09-09T08:19:07;7.80;;;5.72;;
52412;SDS011;38339;53.234;6.578;2022-09-09T08:21:33;9.13;;;5.50;;
52412;SDS011;38339;53.234;6.578;2022-09-09T08:24:02;8.35;;;5.53;;
52412;SDS011;38339;53.234;6.578;2022-09-09T08:26:29;10.43;;;5.97;;
52412;SDS011;38339;53.234;6.578;2022-09-09T08:28:57;11.48;;;5.43;;
52412;SDS011;38339;53.234;6.578;2022-09-09T08:31:24;11.15;;;5.28;;
52412;SDS011;38339;53.234;6.578;2022-09-09T08:33:55;10.27;;;5.88;;
52412;SDS011;38339;53.234;6.578;2022-09-09T08:36:23;11.82;;;5.63;;
52412;SDS011;38339;53.234;6.578;2022-09-09T08:38:54;9.93;;;5.40;;
52412;SDS011;38339;53.234;6.578;2022-09-09T08:50:00;13.23;;;5.82;;
52412;SDS011;38339;53.234;6.578;2022-09-09T08:55:24;7.80;;;4.65;;
52412;SDS011;38339;53.234;6.578;2022-09-09T08:58:12;7.68;;;4.63;;
52412;SDS011;38339;53.234;6.578;2022-09-09T09:11:36;10.63;;;5.10;;
52412;SDS011;38339;53.234;6.578;2022-09-09T09:14:08;8.38;;;4.28;;
52412;SDS011;38339;53.234;6.578;2022-09-09T09:16:59;8.23;;;4.18;;
52412;SDS011;38339;53.234;6.578;2022-09-09T09:19:28;11.38;;;4.43;;
52412;SDS011;38339;53.234;6.578;2022-09-09T09:24:55;10.68;;;4.47;;
52412;SDS011;38339;53.234;6.578;2022-09-09T09:27:33;11.77;;;4.72;;
52412;SDS011;38339;53.234;6.578;2022-09-09T09:30:22;8.00;;;4.35;;
52412;SDS011;38339;53.234;6.578;2022-09-09T09:32:51;10.63;;;4.88;;
52412;SDS011;38339;53.234;6.578;2022-09-09T09:35:20;9.85;;;4.60;;
52412;SDS011;38339;53.234;6.578;2022-09-09T09:37:46;9.48;;;5.32;;
52412;SDS011;38339;53.234;6.578;2022-09-09T09:40:20;8.65;;;4.05;;
52412;SDS011;38339;53.234;6.578;2022-09-09T09:42:54;11.57;;;4.30;;
52412;SDS011;38339;53.234;6.578;2022-09-09T09:48:12;9.40;;;4.18;;
52412;SDS011;38339;53.234;6.578;2022-09-09T09:50:49;7.55;;;4.28;;
52412;SDS011;38339;53.234;6.578;2022-09-09T09:53:25;8.18;;;4.00;;
52412;SDS011;38339;53.234;6.578;2022-09-09T09:56:02;9.60;;;4.10;;
52412;SDS011;38339;53.234;6.578;2022-09-09T09:58:30;9.70;;;3.92;;
52412;SDS011;38339;53.234;6.578;2022-09-09T10:00:59;13.00;;;4.30;;
52412;SDS011;38339;53.234;6.578;2022-09-09T10:03:30;11.27;;;3.95;;
52412;SDS011;38339;53.234;6.578;2022-09-09T10:05:56;9.32;;;3.95;;
52412;SDS011;38339;53.234;6.578;2022-09-09T10:08:26;9.82;;;3.80;;
52412;SDS011;38339;53.234;6.578;2022-09-09T10:18:59;12.50;;;3.63;;
52412;SDS011;38339;53.234;6.578;2022-09-09T10:24:13;14.98;;;3.50;;
52412;SDS011;38339;53.234;6.578;2022-09-09T10:26:52;10.10;;;3.22;;
52412;SDS011;38339;53.234;6.578;2022-09-09T10:29:40;12.48;;;3.50;;
52412;SDS011;38339;53.234;6.578;2022-09-09T10:35:10;9.55;;;3.42;;
52412;SDS011;38339;53.234;6.578;2022-09-09T10:41:25;11.07;;;2.95;;
52412;SDS011;38339;53.234;6.578;2022-09-09T10:46:13;12.40;;;4.10;;
52412;SDS011;38339;53.234;6.578;2022-09-09T10:57:17;12.02;;;2.92;;
52412;SDS011;38339;53.234;6.578;2022-09-09T10:59:54;10.75;;;2.80;;
52412;SDS011;38339;53.234;6.578;2022-09-09T11:02:31;6.72;;;2.40;;
52412;SDS011;38339;53.234;6.578;2022-09-09T11:10:26;24.33;;;8.02;;
52412;SDS011;38339;53.234;6.578;2022-09-09T11:13:22;8.93;;;2.63;;
52412;SDS011;38339;53.234;6.578;2022-09-09T11:16:03;13.13;;;3.78;;
52412;SDS011;38339;53.234;6.578;2022-09-09T11:18:30;12.50;;;3.03;;
52412;SDS011;38339;53.234;6.578;2022-09-09T11:21:01;11.15;;;2.83;;
52412;SDS011;38339;53.234;6.578;2022-09-09T11:23:40;11.32;;;3.55;;
52412;SDS011;38339;53.234;6.578;2022-09-09T11:26:13;7.38;;;1.90;;
52412;SDS011;38339;53.234;6.578;2022-09-09T11:34:50;9.90;;;2.10;;
52412;SDS011;38339;53.234;6.578;2022-09-09T11:40:23;8.52;;;2.63;;
52412;SDS011;38339;53.234;6.578;2022-09-09T11:43:00;7.82;;;2.25;;
52412;SDS011;38339;53.234;6.578;2022-09-09T11:45:30;7.38;;;2.08;;
52412;SDS011;38339;53.234;6.578;2022-09-09T11:47:59;11.10;;;2.03;;
52412;SDS011;38339;53.234;6.578;2022-09-09T11:50:27;21.23;;;3.03;;
52412;SDS011;38339;53.234;6.578;2022-09-09T11:53:14;16.40;;;2.67;;
52412;SDS011;38339;53.234;6.578;2022-09-09T11:55:46;7.28;;;1.70;;
52412;SDS011;38339;53.234;6.578;2022-09-09T12:00:44;5.82;;;2.20;;
52412;SDS011;38339;53.234;6.578;2022-09-09T12:08:41;12.15;;;3.65;;
52412;SDS011;38339;53.234;6.578;2022-09-09T12:11:10;10.10;;;2.45;;
52412;SDS011;38339;53.234;6.578;2022-09-09T12:13:36;7.78;;;2.80;;
52412;SDS011;38339;53.234;6.578;2022-09-09T12:16:02;13.90;;;2.72;;
52412;SDS011;38339;53.234;6.578;2022-09-09T12:24:11;8.35;;;2.53;;
52412;SDS011;38339;53.234;6.578;2022-09-09T12:26:47;10.02;;;2.25;;
52412;SDS011;38339;53.234;6.578;2022-09-09T12:32:34;7.28;;;2.45;;
52412;SDS011;38339;53.234;6.578;2022-09-09T12:35:04;10.30;;;2.78;;
52412;SDS011;38339;53.234;6.578;2022-09-09T12:37:49;6.93;;;2.58;;
52412;SDS011;38339;53.234;6.578;2022-09-09T12:40:29;6.32;;;2.13;;
52412;SDS011;38339;53.234;6.578;2022-09-09T12:42:57;5.15;;;1.90;;
52412;SDS011;38339;53.234;6.578;2022-09-09T12:45:28;7.70;;;2.53;;
52412;SDS011;38339;53.234;6.578;2022-09-09T12:50:51;7.75;;;2.17;;
52412;SDS011;38339;53.234;6.578;2022-09-09T12:56:18;7.40;;;1.73;;
52412;SDS011;38339;53.234;6.578;2022-09-09T12:58:47;8.05;;;1.92;;
52412;SDS011;38339;53.234;6.578;2022-09-09T13:01:23;8.48;;;2.22;;
52412;SDS011;38339;53.234;6.578;2022-09-09T13:03:51;5.65;;;1.85;;
52412;SDS011;38339;53.234;6.578;2022-09-09T13:06:25;6.63;;;1.73;;
52412;SDS011;38339;53.234;6.578;2022-09-09T13:08:53;7.28;;;2.03;;
52412;SDS011;38339;53.234;6.578;2022-09-09T13:11:27;10.15;;;2.17;;
52412;SDS011;38339;53.234;6.578;2022-09-09T13:14:00;9.30;;;2.28;;
52412;SDS011;38339;53.234;6.578;2022-09-09T13:16:31;13.25;;;2.40;;
52412;SDS011;38339;53.234;6.578;2022-09-09T13:19:06;11.77;;;2.15;;
52412;SDS011;38339;53.234;6.578;2022-09-09T13:24:04;7.00;;;2.28;;
52412;SDS011;38339;53.234;6.578;2022-09-09T13:26:33;8.55;;;2.20;;
52412;SDS011;38339;53.234;6.578;2022-09-09T13:29:16;5.68;;;2.00;;
52412;SDS011;38339;53.234;6.578;2022-09-09T13:31:43;5.78;;;1.98;;
52412;SDS011;38339;53.234;6.578;2022-09-09T13:36:40;7.80;;;2.35;;
52412;SDS011;38339;53.234;6.578;2022-09-09T13:39:14;8.60;;;1.98;;
52412;SDS011;38339;53.234;6.578;2022-09-09T13:41:43;7.35;;;2.33;;
52412;SDS011;38339;53.234;6.578;2022-09-09T13:44:34;6.18;;;2.10;;
52412;SDS011;38339;53.234;6.578;2022-09-09T13:47:05;8.93;;;2.30;;
52412;SDS011;38339;53.234;6.578;2022-09-09T13:49:42;7.22;;;2.00;;
52412;SDS011;38339;53.234;6.578;2022-09-09T13:54:47;8.40;;;1.77;;
52412;SDS011;38339;53.234;6.578;2022-09-09T13:57:17;9.63;;;2.08;;
52412;SDS011;38339;53.234;6.578;2022-09-09T13:59:48;10.63;;;2.10;;
52412;SDS011;38339;53.234;6.578;2022-09-09T14:02:14;4.93;;;1.80;;
52412;SDS011;38339;53.234;6.578;2022-09-09T14:04:42;5.65;;;1.70;;
52412;SDS011;38339;53.234;6.578;2022-09-09T14:07:11;8.20;;;1.95;;
52412;SDS011;38339;53.234;6.578;2022-09-09T14:09:39;7.43;;;2.10;;
52412;SDS011;38339;53.234;6.578;2022-09-09T14:12:09;8.00;;;1.60;;
52412;SDS011;38339;53.234;6.578;2022-09-09T14:14:41;8.82;;;2.00;;
52412;SDS011;38339;53.234;6.578;2022-09-09T14:17:07;6.35;;;1.38;;
52412;SDS011;38339;53.234;6.578;2022-09-09T14:19:33;3.53;;;1.40;;
52412;SDS011;38339;53.234;6.578;2022-09-09T14:22:00;4.47;;;1.52;;
52412;SDS011;38339;53.234;6.578;2022-09-09T14:24:26;4.80;;;1.20;;
52412;SDS011;38339;53.234;6.578;2022-09-09T14:26:52;3.85;;;1.10;;
52412;SDS011;38339;53.234;6.578;2022-09-09T14:29:18;4.88;;;0.93;;
52412;SDS011;38339;53.234;6.578;2022-09-09T14:31:45;8.32;;;1.58;;
52412;SDS011;38339;53.234;6.578;2022-09-09T14:34:11;6.50;;;1.35;;
52412;SDS011;38339;53.234;6.578;2022-09-09T14:36:39;4.47;;;1.38;;
52412;SDS011;38339;53.234;6.578;2022-09-09T14:39:06;6.55;;;1.58;;
52412;SDS011;38339;53.234;6.578;2022-09-09T14:41:33;4.90;;;1.67;;
52412;SDS011;38339;53.234;6.578;2022-09-09T14:43:58;5.50;;;1.70;;
52412;SDS011;38339;53.234;6.578;2022-09-09T14:46:25;4.13;;;1.30;;
52412;SDS011;38339;53.234;6.578;2022-09-09T14:48:51;4.03;;;1.40;;
52412;SDS011;38339;53.234;6.578;2022-09-09T14:51:22;5.28;;;1.30;;
52412;SDS011;38339;53.234;6.578;2022-09-09T14:53:51;3.50;;;1.10;;
52412;SDS011;38339;53.234;6.578;2022-09-09T14:56:23;12.35;;;4.75;;
52412;SDS011;38339;53.234;6.578;2022-09-09T14:58:52;9.70;;;1.90;;
52412;SDS011;38339;53.234;6.578;2022-09-09T15:01:20;3.78;;;1.45;;
52412;SDS011;38339;53.234;6.578;2022-09-09T15:03:51;1.75;;;1.17;;
52412;SDS011;38339;53.234;6.578;2022-09-09T15:06:24;3.25;;;1.20;;
52412;SDS011;38339;53.234;6.578;2022-09-09T15:08:51;4.18;;;1.30;;
52412;SDS011;38339;53.234;6.578;2022-09-09T15:11:18;3.35;;;1.45;;
52412;SDS011;38339;53.234;6.578;2022-09-09T15:13:45;5.18;;;1.27;;
52412;SDS011;38339;53.234;6.578;2022-09-09T15:16:30;2.95;;;1.40;;
52412;SDS011;38339;53.234;6.578;2022-09-09T15:19:02;4.82;;;1.50;;
52412;SDS011;38339;53.234;6.578;2022-09-09T15:21:30;6.35;;;1.55;;
52412;SDS011;38339;53.234;6.578;2022-09-09T15:23:56;8.02;;;1.75;;
52412;SDS011;38339;53.234;6.578;2022-09-09T15:26:23;3.75;;;1.50;;
52412;SDS011;38339;53.234;6.578;2022-09-09T15:28:49;7.55;;;1.52;;
52412;SDS011;38339;53.234;6.578;2022-09-09T15:33:57;11.02;;;1.80;;
52412;SDS011;38339;53.234;6.578;2022-09-09T15:36:28;6.40;;;2.05;;
52412;SDS011;38339;53.234;6.578;2022-09-09T15:39:02;8.43;;;2.00;;
52412;SDS011;38339;53.234;6.578;2022-09-09T15:41:30;3.65;;;1.48;;
52412;SDS011;38339;53.234;6.578;2022-09-09T15:43:59;4.65;;;1.70;;
52412;SDS011;38339;53.234;6.578;2022-09-09T15:49:44;5.50;;;1.60;;
52412;SDS011;38339;53.234;6.578;2022-09-09T15:51:56;5.68;;;1.52;;
52412;SDS011;38339;53.234;6.578;2022-09-09T15:54:23;6.70;;;1.50;;
52412;SDS011;38339;53.234;6.578;2022-09-09T15:56:55;4.03;;;1.38;;
52412;SDS011;38339;53.234;6.578;2022-09-09T15:59:22;4.65;;;1.50;;
52412;SDS011;38339;53.234;6.578;2022-09-09T16:01:49;4.78;;;1.50;;
52412;SDS011;38339;53.234;6.578;2022-09-09T16:04:17;3.78;;;1.30;;
52412;SDS011;38339;53.234;6.578;2022-09-09T16:06:58;2.92;;;1.35;;
52412;SDS011;38339;53.234;6.578;2022-09-09T16:09:29;3.80;;;1.25;;
52412;SDS011;38339;53.234;6.578;2022-09-09T16:11:56;3.17;;;1.13;;
52412;SDS011;38339;53.234;6.578;2022-09-09T16:14:23;2.70;;;1.10;;
52412;SDS011;38339;53.234;6.578;2022-09-09T16:16:51;3.15;;;1.30;;
52412;SDS011;38339;53.234;6.578;2022-09-09T16:19:17;2.90;;;1.20;;
52412;SDS011;38339;53.234;6.578;2022-09-09T16:21:47;3.92;;;1.13;;
52412;SDS011;38339;53.234;6.578;2022-09-09T16:24:15;5.97;;;1.40;;
52412;SDS011;38339;53.234;6.578;2022-09-09T16:26:46;4.68;;;2.13;;
52412;SDS011;38339;53.234;6.578;2022-09-09T16:29:14;5.43;;;1.65;;
52412;SDS011;38339;53.234;6.578;2022-09-09T16:31:42;5.95;;;1.42;;
52412;SDS011;38339;53.234;6.578;2022-09-09T16:34:08;4.88;;;1.42;;
52412;SDS011;38339;53.234;6.578;2022-09-09T16:36:36;6.18;;;1.50;;
52412;SDS011;38339;53.234;6.578;2022-09-09T16:39:05;3.10;;;1.25;;
52412;SDS011;38339;53.234;6.578;2022-09-09T16:41:32;4.78;;;1.45;;
52412;SDS011;38339;53.234;6.578;2022-09-09T16:43:59;5.57;;;1.60;;
52412;SDS011;38339;53.234;6.578;2022-09-09T16:46:28;7.22;;;1.50;;
52412;SDS011;38339;53.234;6.578;2022-09-09T16:48:58;4.60;;;1.55;;
52412;SDS011;38339;53.234;6.578;2022-09-09T16:51:30;6.72;;;1.52;;
52412;SDS011;38339;53.234;6.578;2022-09-09T16:53:58;3.70;;;1.50;;
52412;SDS011;38339;53.234;6.578;2022-09-09T16:56:29;3.65;;;1.50;;
52412;SDS011;38339;53.234;6.578;2022-09-09T16:58:58;4.50;;;1.48;;
52412;SDS011;38339;53.234;6.578;2022-09-09T17:01:27;5.00;;;1.60;;
52412;SDS011;38339;53.234;6.578;2022-09-09T17:03:56;4.85;;;1.65;;
52412;SDS011;38339;53.234;6.578;2022-09-09T17:06:24;4.28;;;1.40;;
52412;SDS011;38339;53.234;6.578;2022-09-09T17:08:54;4.57;;;1.85;;
52412;SDS011;38339;53.234;6.578;2022-09-09T17:11:22;5.28;;;1.48;;
52412;SDS011;38339;53.234;6.578;2022-09-09T17:13:48;3.45;;;1.48;;
52412;SDS011;38339;53.234;6.578;2022-09-09T17:16:16;2.30;;;1.50;;
52412;SDS011;38339;53.234;6.578;2022-09-09T17:18:43;4.55;;;1.60;;
52412;SDS011;38339;53.234;6.578;2022-09-09T17:21:14;5.30;;;1.70;;
52412;SDS011;38339;53.234;6.578;2022-09-09T17:23:43;3.90;;;2.10;;
52412;SDS011;38339;53.234;6.578;2022-09-09T17:26:10;5.10;;;1.92;;
52412;SDS011;38339;53.234;6.578;2022-09-09T17:28:38;5.57;;;2.08;;
52412;SDS011;38339;53.234;6.578;2022-09-09T17:31:09;4.97;;;1.75;;